RJDB(METAR)
08/23 18:00
RJDB 230900Z 27005KT CAVOK 27/20 Q1008 RMK A2979=
戻る
トップページへ戻る
IMOC Co,.Ltd.